Terminal Aerodrome Forecast
Issued by NWS Greer, SC

Home | Current Version | Previous Version | Text Only | Print | Product List | Glossary On
Versions: 1 2 3 4 5 6 7 8 9 10 11 12 13 14 15 16 17 18 19
000
FTUS42 KGSP 291135
TAFGSP
TAF
KGSP 291135Z 2912/3012 04003KT P6SM BKN030
      TEMPO 2912/2914 6SM BR SCT030
     FM291400 04003KT P6SM BKN040 BKN250
     FM291800 07003KT P6SM VCSH BKN060
     FM292100 08004KT P6SM BKN060 BKN160
     FM300700 00000KT P6SM SCT030=

USA.gov is the U.S. government's official web portal to all federal, state and local government web resources and services.